Searchlight, Nevada
Current Conditions -  °F | °C
As of 2:15 PM on Sunday 23 Nov 2014 (Local Time) from KIFP Reporting Station
Clear Clear  
Wind Chill: 68°   Ceiling: Unl
Heat Index: 68°   Visibility: 10mi
Dew Point: 10°   Wind: 23mph
Humidity: 11%   Direction: 340°NNW
Pressure: 30.17"   Gusts: NA
Location:  35.46°N, 114.92°W
Report Text: KIFP 232215Z AUTO 34020KT 10SM CLR 20/M12 A3017 RMK AO2 PWINO
Loading
Personal Weather Stations






























Interactive Weather Map New forecast layout! Learn more

10-Day Weather Forecast

Advertisements
Track Severe Weather on mobile